St Pierre — FIDX — position and weather

sailwx.info

Track history (hours):
 
Tides and Currents Weather Stations Pressure Air Temp Water Temp Dewpoint Dewpoint Depression Visibility Wind Speed Wind Dir Waves Ship Positions

St Pierre

Last reported at 2015-Jul-04 07:30 UTC. Time now 2015-Jul-04 08:24 UTC.
Position N 47°12' W 001°38'.

Length 84 m; draft 6.2 m.

Type: Cargo ship. MMSI: 228024800.

Date/timePositionNaut miles runAvg speedWind from/ knotsBaromVisibWave heightAir tempDewpointWater temp
2015-Jul-04 07:30N 47°12' W 001°38'0 0.0
2015-Jul-04 06:33N 47°12' W 001°38'3 2.9
2015-Jul-04 05:33N 47°12' W 001°42'1110.9
2015-Jul-04 04:33N 47°17' W 001°57'1111.1
2015-Jul-04 03:33N 47°15' W 002°13'1111.1
2015-Jul-04 02:33N 47°06' W 002°20'0 0.1
2015-Jul-04 01:33N 47°06' W 002°20'1 0.9
2015-Jul-04 00:33N 47°05' W 002°21'0 0.1
2015-Jul-03 23:33N 47°05' W 002°21'0 0.2
2015-Jul-03 22:28N 47°05' W 002°22'0 0.1
2015-Jul-03 21:33N 47°05' W 002°22'9 8.8
2015-Jul-03 20:33N 47°13' W 002°16'1211.3
2015-Jul-03 19:30N 47°17' W 001°60'16 8.2
2015-Jul-03 17:32N 47°12' W 001°38'0 0.0
2015-Jul-03 16:32N 47°12' W 001°38'31 7.4
2015-Jul-03 12:25N 47°05' W 002°22'0 0.1
2015-Jul-03 11:27N 47°05' W 002°22'0 0.2
2015-Jul-03 10:26N 47°05' W 002°21'8 7.5
2015-Jul-03 09:18N 47°13' W 002°17'1013.2
2015-Jul-03 08:33N 47°18' W 002°04'1212.5
2015-Jul-03 07:33N 47°13' W 001°48'7 6.6
2015-Jul-03 06:33N 47°12' W 001°38'0 0.0
2015-Jul-03 05:33N 47°12' W 001°38'2 1.9
2015-Jul-03 04:33N 47°12' W 001°41'1111.2
2015-Jul-03 03:33N 47°17' W 001°55'1111.5
2015-Jul-03 02:33N 47°16' W 002°12'1111.4
2015-Jul-03 01:33N 47°06' W 002°21'0 0.3
2015-Jul-03 00:33N 47°06' W 002°20'1 0.6
2015-Jul-02 23:33N 47°06' W 002°21'1 0.7
2015-Jul-02 22:33N 47°05' W 002°21'0 0.1
2015-Jul-02 21:33N 47°05' W 002°22'0 0.3
2015-Jul-02 20:33N 47°05' W 002°22'1111.3
2015-Jul-02 19:33N 47°15' W 002°14'6 5.7
2015-Jul-02 18:33N 47°18' W 002°07'0 0.0
2015-Jul-02 17:25N 47°18' W 002°07'0 0.0
2015-Jul-02 16:32N 47°18' W 002°07'10 9.7
2015-Jul-02 15:30N 47°11' W 002°18'6 5.3
2015-Jul-02 14:22N 47°06' W 002°20'0 0.5
2015-Jul-02 13:33N 47°06' W 002°21'1 0.8
2015-Jul-02 12:33N 47°05' W 002°22'0 0.4
2015-Jul-02 11:33N 47°05' W 002°21'0 0.4
2015-Jul-02 10:33N 47°05' W 002°22'23 7.0
2015-Jul-02 07:14N 47°14' W 001°50'9 4.3
2015-Jul-02 05:10N 47°12' W 001°38'0 0.0
2015-Jul-02 04:33N 47°12' W 001°38'2010.2
2015-Jul-02 02:33N 47°18' W 002°06'1212.1
2015-Jul-02 01:33N 47°10' W 002°19'4 3.9
2015-Jul-02 00:33N 47°06' W 002°20'0 0.2
2015-Jul-01 23:33N 47°06' W 002°20'1 1.2
2015-Jul-01 22:34N 47°05' W 002°22'0 0.0
2015-Jul-01 21:33N 47°05' W 002°22'0 0.3
2015-Jul-01 20:33N 47°05' W 002°21'4 4.2
2015-Jul-01 19:32N 47°09' W 002°19'1212.8
2015-Jul-01 18:33N 47°18' W 002°06'1211.4
2015-Jul-01 17:33N 47°14' W 001°50'9 9.0
2015-Jul-01 16:33N 47°12' W 001°38'0 0.0
2015-Jul-01 15:33N 47°12' W 001°38'0 0.0
2015-Jul-01 14:33N 47°12' W 001°38'6 6.0
2015-Jul-01 13:33N 47°13' W 001°47'1312.1
2015-Jul-01 12:30N 47°18' W 002°04'1112.0
2015-Jul-01 11:33N 47°12' W 002°17'7 7.2
2015-Jul-01 10:33N 47°05' W 002°21'0 0.1
2015-Jul-01 09:06N 47°05' W 002°22'11 5.5
2015-Jul-01 07:10N 47°15' W 002°15'712.0
2015-Jul-01 06:33N 47°18' W 002°05'1312.6
2015-Jul-01 05:33N 47°13' W 001°48'8 8.0
2015-Jul-01 04:33N 47°12' W 001°37'0 0.0
2015-Jul-01 03:33N 47°12' W 001°37'0 0.0
2015-Jul-01 02:33N 47°12' W 001°37'0 0.0
2015-Jul-01 01:33N 47°12' W 001°37'0 0.0
2015-Jul-01 00:33N 47°12' W 001°37'0 0.0
2015-Jun-30 20:33N 47°12' W 001°37'0 0.0
2015-Jun-30 19:32N 47°12' W 001°37'0 0.0
2015-Jun-30 11:32N 47°12' W 001°37'0 0.0
2015-Jun-30 10:32N 47°12' W 001°37'0 0.0
2015-Jun-30 09:31N 47°12' W 001°37'0 0.0
2015-Jun-30 08:33N 47°12' W 001°37'0 0.0
2015-Jun-30 07:33N 47°12' W 001°37'0 0.0
2015-Jun-30 06:33N 47°12' W 001°37'0 0.0
2015-Jun-30 05:33N 47°12' W 001°37'0 0.0
2015-Jun-30 04:33N 47°12' W 001°37'0 0.0
2015-Jun-30 03:33N 47°12' W 001°37'0 0.0
2015-Jun-30 02:33N 47°12' W 001°37'0 0.0
2015-Jun-30 01:33N 47°12' W 001°37'0 0.0
2015-Jun-30 00:33N 47°12' W 001°37'0 0.0
2015-Jun-29 23:33N 47°12' W 001°37'0 0.0
2015-Jun-29 22:33N 47°12' W 001°37'0 0.0
2015-Jun-29 21:33N 47°12' W 001°37'0 0.0
2015-Jun-29 20:33N 47°12' W 001°37'0 0.0
2015-Jun-29 19:32N 47°12' W 001°37'0 0.0
2015-Jun-29 18:33N 47°12' W 001°37'0 0.0
2015-Jun-29 17:33N 47°12' W 001°37'0 0.0
2015-Jun-29 16:33N 47°12' W 001°37'0 0.0
2015-Jun-29 15:32N 47°12' W 001°37'0 0.0
2015-Jun-29 14:33N 47°12' W 001°37'0 0.0
2015-Jun-29 13:33N 47°12' W 001°37'0 0.0
2015-Jun-29 12:33N 47°12' W 001°37'0 0.0
2015-Jun-29 11:33N 47°12' W 001°37'0 0.0
2015-Jun-29 10:33N 47°12' W 001°37'0 0.0
2015-Jun-29 09:33N 47°12' W 001°37'0 0.0
2015-Jun-29 08:33N 47°12' W 001°37'0 0.0
2015-Jun-29 07:33N 47°12' W 001°37'0 0.0
2015-Jun-29 06:33N 47°12' W 001°37'0 0.0
2015-Jun-29 05:34N 47°12' W 001°37'0 0.0
2015-Jun-29 04:33N 47°12' W 001°37'0 0.0
2015-Jun-29 03:33N 47°12' W 001°37'0 0.0
2015-Jun-29 02:33N 47°12' W 001°37'0 0.0
2015-Jun-29 01:33N 47°12' W 001°37'0 0.0
2015-Jun-29 00:33N 47°12' W 001°37'0 0.0
2015-Jun-28 23:33N 47°12' W 001°37'0 0.0
2015-Jun-28 22:33N 47°12' W 001°37'0 0.0
2015-Jun-28 21:33N 47°12' W 001°37'0 0.0
2015-Jun-28 20:33N 47°12' W 001°37'0 0.0
2015-Jun-28 19:33N 47°12' W 001°37'0 0.0
2015-Jun-28 18:32N 47°12' W 001°37'0 0.0
2015-Jun-28 17:31N 47°12' W 001°37'0 0.0
2015-Jun-28 16:33N 47°12' W 001°37'0 0.0
2015-Jun-28 15:33N 47°12' W 001°37'0 0.0
2015-Jun-28 14:27N 47°12' W 001°37'0 0.0
2015-Jun-28 13:32N 47°12' W 001°37'0 0.0
2015-Jun-28 12:33N 47°12' W 001°37'0 0.0
2015-Jun-28 11:33N 47°12' W 001°37'0 0.0
2015-Jun-28 10:33N 47°12' W 001°37'0 0.0
2015-Jun-28 09:33N 47°12' W 001°37'0 0.0
2015-Jun-28 08:33N 47°12' W 001°37'0 0.0
2015-Jun-28 07:33N 47°12' W 001°37'0 0.0
2015-Jun-28 06:33N 47°12' W 001°37'0 0.0
2015-Jun-28 05:33N 47°12' W 001°37'0 0.0
2015-Jun-28 04:33N 47°12' W 001°37'0 0.0
2015-Jun-28 03:33N 47°12' W 001°37'0 0.0
2015-Jun-28 02:33N 47°12' W 001°37'0 0.0
2015-Jun-28 01:33N 47°12' W 001°37'0 0.0
2015-Jun-28 00:33N 47°12' W 001°37'0 0.0
2015-Jun-27 23:33N 47°12' W 001°37'0 0.0
2015-Jun-27 22:33N 47°12' W 001°37'0 0.0
2015-Jun-27 21:33N 47°12' W 001°37'0 0.0
2015-Jun-27 20:33N 47°12' W 001°37'0 0.0
2015-Jun-27 19:33N 47°12' W 001°37'0 0.0
2015-Jun-27 16:26N 47°12' W 001°37'17 2.7
2015-Jun-27 10:18N 47°17' W 001°60'5 5.6
2015-Jun-27 09:24N 47°18' W 002°07'0 0.0
2015-Jun-27 08:25N 47°18' W 002°07'0 0.0
2015-Jun-27 07:30N 47°18' W 002°07'0 0.0
2015-Jun-27 06:33N 47°18' W 002°07'0 0.0
2015-Jun-27 05:33N 47°18' W 002°07'0 0.0
2015-Jun-27 04:33N 47°18' W 002°07'0 0.0
2015-Jun-27 03:32N 47°18' W 002°07'0 0.0
2015-Jun-27 02:33N 47°18' W 002°07'0 0.0
2015-Jun-27 01:31N 47°18' W 002°07'0 0.0
2015-Jun-27 00:28N 47°18' W 002°07'0 0.0
2015-Jun-26 23:33N 47°18' W 002°07'0 0.0
2015-Jun-26 22:33N 47°18' W 002°07'0 0.0
2015-Jun-26 21:33N 47°18' W 002°07'0 0.1
2015-Jun-26 20:33N 47°18' W 002°07'0 0.0
2015-Jun-26 19:33N 47°18' W 002°07'0 0.3
2015-Jun-26 18:33N 47°18' W 002°06'9 9.3
2015-Jun-26 17:33N 47°12' W 002°17'8 7.7
2015-Jun-26 16:33N 47°05' W 002°21'0 0.2
2015-Jun-26 15:33N 47°05' W 002°22'0 0.1
2015-Jun-26 14:33N 47°05' W 002°22'1 0.5
2015-Jun-26 13:33N 47°05' W 002°21'1312.6
2015-Jun-26 12:33N 47°16' W 002°11'1111.2
2015-Jun-26 11:33N 47°17' W 001°55'1010.4
2015-Jun-26 10:33N 47°12' W 001°41'2 2.3
2015-Jun-26 09:33N 47°12' W 001°38'2 2.5
2015-Jun-26 08:33N 47°12' W 001°41'1010.4
2015-Jun-26 07:33N 47°17' W 001°55'1010.2
2015-Jun-26 06:34N 47°17' W 002°10'1111.2
2015-Jun-26 05:33N 47°08' W 002°20'3 3.2
2015-Jun-26 04:33N 47°05' W 002°22'0 0.1
2015-Jun-26 03:33N 47°05' W 002°22'0 0.1
2015-Jun-26 02:33N 47°05' W 002°22'4 4.2
2015-Jun-26 01:33N 47°09' W 002°19'1212.0
2015-Jun-26 00:33N 47°18' W 002°08'1211.7
2015-Jun-25 23:33N 47°15' W 001°51'10 9.5
2015-Jun-25 22:33N 47°12' W 001°38'0 0.0
2015-Jun-25 21:33N 47°12' W 001°38'5 4.9
2015-Jun-25 20:33N 47°12' W 001°45'1111.1
2015-Jun-25 19:33N 47°17' W 001°60'1110.6
2015-Jun-25 18:33N 47°14' W 002°15'1110.7
2015-Jun-25 17:33N 47°05' W 002°22'0 0.5
2015-Jun-25 16:33N 47°05' W 002°22'0 0.3
2015-Jun-25 15:34N 47°05' W 002°21'0 0.3
2015-Jun-25 14:33N 47°05' W 002°22'9 9.3
2015-Jun-25 13:33N 47°14' W 002°16'1211.4
2015-Jun-25 12:32N 47°17' W 001°60'1111.4
2015-Jun-25 11:33N 47°12' W 001°45'5 4.9
2015-Jun-25 10:34N 47°12' W 001°38'0 0.0
2015-Jun-25 09:33N 47°12' W 001°38'8 8.1
2015-Jun-25 08:33N 47°14' W 001°50'1010.2
2015-Jun-25 07:33N 47°18' W 002°03'1010.5
2015-Jun-25 06:33N 47°13' W 002°17'7 7.0
2015-Jun-25 05:33N 47°07' W 002°21'0 0.1
2015-Jun-25 04:33N 47°07' W 002°21'0 0.0
2015-Jun-25 03:33N 47°07' W 002°21'0 0.0
2015-Jun-25 02:33N 47°07' W 002°21'0 0.1
2015-Jun-25 01:33N 47°07' W 002°21'2 1.6
2015-Jun-25 00:33N 47°05' W 002°22'0 0.1
2015-Jun-24 23:33N 47°05' W 002°22'0 0.0
2015-Jun-24 22:33N 47°05' W 002°22'0 0.5
2015-Jun-24 21:33N 47°06' W 002°22'1212.2
2015-Jun-24 20:33N 47°16' W 002°12'4 4.0
2015-Jun-24 19:33N 47°18' W 002°07'0 0.0
2015-Jun-24 18:31N 47°18' W 002°07'9 6.5
2015-Jun-24 17:06N 47°12' W 002°17'712.2
2015-Jun-24 16:33N 47°06' W 002°21'1 1.0
2015-Jun-24 15:32N 47°05' W 002°22'0 0.2
2015-Jun-24 14:32N 47°05' W 002°22'11 4.6
2015-Jun-24 12:10N 47°15' W 002°14'26 5.5
2015-Jun-24 07:33N 47°12' W 001°37'  
Track history (hours):
 
Tides and Currents Weather Stations Pressure Air Temp Water Temp Dewpoint Dewpoint Depression Visibility Wind Speed Wind Dir Waves Ship Positions

St Pierre

Last reported at 2015-Jul-04 07:30 UTC. Time now 2015-Jul-04 08:24 UTC.
Position N 47°12' W 001°38'.

Length 84 m; draft 6.2 m.

Type: Cargo ship. MMSI: 228024800.

Date/timePositionNaut miles runAvg speedWind from/ knotsBaromVisibWave heightAir tempDewpointWater temp
2015-Jul-04 07:30N 47°12' W 001°38'0 0.0
2015-Jul-04 06:33N 47°12' W 001°38'3 2.9
2015-Jul-04 05:33N 47°12' W 001°42'1110.9
2015-Jul-04 04:33N 47°17' W 001°57'1111.1
2015-Jul-04 03:33N 47°15' W 002°13'1111.1
2015-Jul-04 02:33N 47°06' W 002°20'0 0.1
2015-Jul-04 01:33N 47°06' W 002°20'1 0.9
2015-Jul-04 00:33N 47°05' W 002°21'0 0.1
2015-Jul-03 23:33N 47°05' W 002°21'0 0.2
2015-Jul-03 22:28N 47°05' W 002°22'0 0.1
2015-Jul-03 21:33N 47°05' W 002°22'9 8.8
2015-Jul-03 20:33N 47°13' W 002°16'1211.3
2015-Jul-03 19:30N 47°17' W 001°60'16 8.2
2015-Jul-03 17:32N 47°12' W 001°38'0 0.0
2015-Jul-03 16:32N 47°12' W 001°38'31 7.4
2015-Jul-03 12:25N 47°05' W 002°22'0 0.1
2015-Jul-03 11:27N 47°05' W 002°22'0 0.2
2015-Jul-03 10:26N 47°05' W 002°21'8 7.5
2015-Jul-03 09:18N 47°13' W 002°17'1013.2
2015-Jul-03 08:33N 47°18' W 002°04'1212.5
2015-Jul-03 07:33N 47°13' W 001°48'7 6.6
2015-Jul-03 06:33N 47°12' W 001°38'0 0.0
2015-Jul-03 05:33N 47°12' W 001°38'2 1.9
2015-Jul-03 04:33N 47°12' W 001°41'1111.2
2015-Jul-03 03:33N 47°17' W 001°55'1111.5
2015-Jul-03 02:33N 47°16' W 002°12'1111.4
2015-Jul-03 01:33N 47°06' W 002°21'0 0.3
2015-Jul-03 00:33N 47°06' W 002°20'1 0.6
2015-Jul-02 23:33N 47°06' W 002°21'1 0.7
2015-Jul-02 22:33N 47°05' W 002°21'0 0.1
2015-Jul-02 21:33N 47°05' W 002°22'0 0.3
2015-Jul-02 20:33N 47°05' W 002°22'1111.3
2015-Jul-02 19:33N 47°15' W 002°14'6 5.7
2015-Jul-02 18:33N 47°18' W 002°07'0 0.0
2015-Jul-02 17:25N 47°18' W 002°07'0 0.0
2015-Jul-02 16:32N 47°18' W 002°07'10 9.7
2015-Jul-02 15:30N 47°11' W 002°18'6 5.3
2015-Jul-02 14:22N 47°06' W 002°20'0 0.5
2015-Jul-02 13:33N 47°06' W 002°21'1 0.8
2015-Jul-02 12:33N 47°05' W 002°22'0 0.4
2015-Jul-02 11:33N 47°05' W 002°21'0 0.4
2015-Jul-02 10:33N 47°05' W 002°22'23 7.0
2015-Jul-02 07:14N 47°14' W 001°50'9 4.3
2015-Jul-02 05:10N 47°12' W 001°38'0 0.0
2015-Jul-02 04:33N 47°12' W 001°38'2010.2
2015-Jul-02 02:33N 47°18' W 002°06'1212.1
2015-Jul-02 01:33N 47°10' W 002°19'4 3.9
2015-Jul-02 00:33N 47°06' W 002°20'0 0.2
2015-Jul-01 23:33N 47°06' W 002°20'1 1.2
2015-Jul-01 22:34N 47°05' W 002°22'0 0.0
2015-Jul-01 21:33N 47°05' W 002°22'0 0.3
2015-Jul-01 20:33N 47°05' W 002°21'4 4.2
2015-Jul-01 19:32N 47°09' W 002°19'1212.8
2015-Jul-01 18:33N 47°18' W 002°06'1211.4
2015-Jul-01 17:33N 47°14' W 001°50'9 9.0
2015-Jul-01 16:33N 47°12' W 001°38'0 0.0
2015-Jul-01 15:33N 47°12' W 001°38'0 0.0
2015-Jul-01 14:33N 47°12' W 001°38'6 6.0
2015-Jul-01 13:33N 47°13' W 001°47'1312.1
2015-Jul-01 12:30N 47°18' W 002°04'1112.0
2015-Jul-01 11:33N 47°12' W 002°17'7 7.2
2015-Jul-01 10:33N 47°05' W 002°21'0 0.1
2015-Jul-01 09:06N 47°05' W 002°22'11 5.5
2015-Jul-01 07:10N 47°15' W 002°15'712.0
2015-Jul-01 06:33N 47°18' W 002°05'1312.6
2015-Jul-01 05:33N 47°13' W 001°48'8 8.0
2015-Jul-01 04:33N 47°12' W 001°37'0 0.0
2015-Jul-01 03:33N 47°12' W 001°37'0 0.0
2015-Jul-01 02:33N 47°12' W 001°37'0 0.0
2015-Jul-01 01:33N 47°12' W 001°37'0 0.0
2015-Jul-01 00:33N 47°12' W 001°37'0 0.0
2015-Jun-30 20:33N 47°12' W 001°37'0 0.0
2015-Jun-30 19:32N 47°12' W 001°37'0 0.0
2015-Jun-30 11:32N 47°12' W 001°37'0 0.0
2015-Jun-30 10:32N 47°12' W 001°37'0 0.0
2015-Jun-30 09:31N 47°12' W 001°37'0 0.0
2015-Jun-30 08:33N 47°12' W 001°37'0 0.0
2015-Jun-30 07:33N 47°12' W 001°37'0 0.0
2015-Jun-30 06:33N 47°12' W 001°37'0 0.0
2015-Jun-30 05:33N 47°12' W 001°37'0 0.0
2015-Jun-30 04:33N 47°12' W 001°37'0 0.0
2015-Jun-30 03:33N 47°12' W 001°37'0 0.0
2015-Jun-30 02:33N 47°12' W 001°37'0 0.0
2015-Jun-30 01:33N 47°12' W 001°37'0 0.0
2015-Jun-30 00:33N 47°12' W 001°37'0 0.0
2015-Jun-29 23:33N 47°12' W 001°37'0 0.0
2015-Jun-29 22:33N 47°12' W 001°37'0 0.0
2015-Jun-29 21:33N 47°12' W 001°37'0 0.0
2015-Jun-29 20:33N 47°12' W 001°37'0 0.0
2015-Jun-29 19:32N 47°12' W 001°37'0 0.0
2015-Jun-29 18:33N 47°12' W 001°37'0 0.0
2015-Jun-29 17:33N 47°12' W 001°37'0 0.0
2015-Jun-29 16:33N 47°12' W 001°37'0 0.0
2015-Jun-29 15:32N 47°12' W 001°37'0 0.0
2015-Jun-29 14:33N 47°12' W 001°37'0 0.0
2015-Jun-29 13:33N 47°12' W 001°37'0 0.0
2015-Jun-29 12:33N 47°12' W 001°37'0 0.0
2015-Jun-29 11:33N 47°12' W 001°37'0 0.0
2015-Jun-29 10:33N 47°12' W 001°37'0 0.0
2015-Jun-29 09:33N 47°12' W 001°37'0 0.0
2015-Jun-29 08:33N 47°12' W 001°37'0 0.0
2015-Jun-29 07:33N 47°12' W 001°37'0 0.0
2015-Jun-29 06:33N 47°12' W 001°37'0 0.0
2015-Jun-29 05:34N 47°12' W 001°37'0 0.0
2015-Jun-29 04:33N 47°12' W 001°37'0 0.0
2015-Jun-29 03:33N 47°12' W 001°37'0 0.0
2015-Jun-29 02:33N 47°12' W 001°37'0 0.0
2015-Jun-29 01:33N 47°12' W 001°37'0 0.0
2015-Jun-29 00:33N 47°12' W 001°37'0 0.0
2015-Jun-28 23:33N 47°12' W 001°37'0 0.0
2015-Jun-28 22:33N 47°12' W 001°37'0 0.0
2015-Jun-28 21:33N 47°12' W 001°37'0 0.0
2015-Jun-28 20:33N 47°12' W 001°37'0 0.0
2015-Jun-28 19:33N 47°12' W 001°37'0 0.0
2015-Jun-28 18:32N 47°12' W 001°37'0 0.0
2015-Jun-28 17:31N 47°12' W 001°37'0 0.0
2015-Jun-28 16:33N 47°12' W 001°37'0 0.0
2015-Jun-28 15:33N 47°12' W 001°37'0 0.0
2015-Jun-28 14:27N 47°12' W 001°37'0 0.0
2015-Jun-28 13:32N 47°12' W 001°37'0 0.0
2015-Jun-28 12:33N 47°12' W 001°37'0 0.0
2015-Jun-28 11:33N 47°12' W 001°37'0 0.0
2015-Jun-28 10:33N 47°12' W 001°37'0 0.0
2015-Jun-28 09:33N 47°12' W 001°37'0 0.0
2015-Jun-28 08:33N 47°12' W 001°37'0 0.0
2015-Jun-28 07:33N 47°12' W 001°37'0 0.0
2015-Jun-28 06:33N 47°12' W 001°37'0 0.0
2015-Jun-28 05:33N 47°12' W 001°37'0 0.0
2015-Jun-28 04:33N 47°12' W 001°37'0 0.0
2015-Jun-28 03:33N 47°12' W 001°37'0 0.0
2015-Jun-28 02:33N 47°12' W 001°37'0 0.0
2015-Jun-28 01:33N 47°12' W 001°37'0 0.0
2015-Jun-28 00:33N 47°12' W 001°37'0 0.0
2015-Jun-27 23:33N 47°12' W 001°37'0 0.0
2015-Jun-27 22:33N 47°12' W 001°37'0 0.0
2015-Jun-27 21:33N 47°12' W 001°37'0 0.0
2015-Jun-27 20:33N 47°12' W 001°37'0 0.0
2015-Jun-27 19:33N 47°12' W 001°37'0 0.0
2015-Jun-27 16:26N 47°12' W 001°37'17 2.7
2015-Jun-27 10:18N 47°17' W 001°60'5 5.6
2015-Jun-27 09:24N 47°18' W 002°07'0 0.0
2015-Jun-27 08:25N 47°18' W 002°07'0 0.0
2015-Jun-27 07:30N 47°18' W 002°07'0 0.0
2015-Jun-27 06:33N 47°18' W 002°07'0 0.0
2015-Jun-27 05:33N 47°18' W 002°07'0 0.0
2015-Jun-27 04:33N 47°18' W 002°07'0 0.0
2015-Jun-27 03:32N 47°18' W 002°07'0 0.0
2015-Jun-27 02:33N 47°18' W 002°07'0 0.0
2015-Jun-27 01:31N 47°18' W 002°07'0 0.0
2015-Jun-27 00:28N 47°18' W 002°07'0 0.0
2015-Jun-26 23:33N 47°18' W 002°07'0 0.0
2015-Jun-26 22:33N 47°18' W 002°07'0 0.0
2015-Jun-26 21:33N 47°18' W 002°07'0 0.1
2015-Jun-26 20:33N 47°18' W 002°07'0 0.0
2015-Jun-26 19:33N 47°18' W 002°07'0 0.3
2015-Jun-26 18:33N 47°18' W 002°06'9 9.3
2015-Jun-26 17:33N 47°12' W 002°17'8 7.7
2015-Jun-26 16:33N 47°05' W 002°21'0 0.2
2015-Jun-26 15:33N 47°05' W 002°22'0 0.1
2015-Jun-26 14:33N 47°05' W 002°22'1 0.5
2015-Jun-26 13:33N 47°05' W 002°21'1312.6
2015-Jun-26 12:33N 47°16' W 002°11'1111.2
2015-Jun-26 11:33N 47°17' W 001°55'1010.4
2015-Jun-26 10:33N 47°12' W 001°41'2 2.3
2015-Jun-26 09:33N 47°12' W 001°38'2 2.5
2015-Jun-26 08:33N 47°12' W 001°41'1010.4
2015-Jun-26 07:33N 47°17' W 001°55'1010.2
2015-Jun-26 06:34N 47°17' W 002°10'1111.2
2015-Jun-26 05:33N 47°08' W 002°20'3 3.2
2015-Jun-26 04:33N 47°05' W 002°22'0 0.1
2015-Jun-26 03:33N 47°05' W 002°22'0 0.1
2015-Jun-26 02:33N 47°05' W 002°22'4 4.2
2015-Jun-26 01:33N 47°09' W 002°19'1212.0
2015-Jun-26 00:33N 47°18' W 002°08'1211.7
2015-Jun-25 23:33N 47°15' W 001°51'10 9.5
2015-Jun-25 22:33N 47°12' W 001°38'0 0.0
2015-Jun-25 21:33N 47°12' W 001°38'5 4.9
2015-Jun-25 20:33N 47°12' W 001°45'1111.1
2015-Jun-25 19:33N 47°17' W 001°60'1110.6
2015-Jun-25 18:33N 47°14' W 002°15'1110.7
2015-Jun-25 17:33N 47°05' W 002°22'0 0.5
2015-Jun-25 16:33N 47°05' W 002°22'0 0.3
2015-Jun-25 15:34N 47°05' W 002°21'0 0.3
2015-Jun-25 14:33N 47°05' W 002°22'9 9.3
2015-Jun-25 13:33N 47°14' W 002°16'1211.4
2015-Jun-25 12:32N 47°17' W 001°60'1111.4
2015-Jun-25 11:33N 47°12' W 001°45'5 4.9
2015-Jun-25 10:34N 47°12' W 001°38'0 0.0
2015-Jun-25 09:33N 47°12' W 001°38'8 8.1
2015-Jun-25 08:33N 47°14' W 001°50'1010.2
2015-Jun-25 07:33N 47°18' W 002°03'1010.5
2015-Jun-25 06:33N 47°13' W 002°17'7 7.0
2015-Jun-25 05:33N 47°07' W 002°21'0 0.1
2015-Jun-25 04:33N 47°07' W 002°21'0 0.0
2015-Jun-25 03:33N 47°07' W 002°21'0 0.0
2015-Jun-25 02:33N 47°07' W 002°21'0 0.1
2015-Jun-25 01:33N 47°07' W 002°21'2 1.6
2015-Jun-25 00:33N 47°05' W 002°22'0 0.1
2015-Jun-24 23:33N 47°05' W 002°22'0 0.0
2015-Jun-24 22:33N 47°05' W 002°22'0 0.5
2015-Jun-24 21:33N 47°06' W 002°22'1212.2
2015-Jun-24 20:33N 47°16' W 002°12'4 4.0
2015-Jun-24 19:33N 47°18' W 002°07'0 0.0
2015-Jun-24 18:31N 47°18' W 002°07'9 6.5
2015-Jun-24 17:06N 47°12' W 002°17'712.2
2015-Jun-24 16:33N 47°06' W 002°21'1 1.0
2015-Jun-24 15:32N 47°05' W 002°22'0 0.2
2015-Jun-24 14:32N 47°05' W 002°22'11 4.6
2015-Jun-24 12:10N 47°15' W 002°14'26 5.5
2015-Jun-24 07:33N 47°12' W 001°37'  

Dump ship's entire track history